Patriot — WDC2859 — position and weather

sailwx.info

Track history (hours):
 
Tides and Currents Weather Stations Pressure Air Temp Water Temp Dewpoint Dewpoint Depression Visibility Wind Speed Wind Dir Waves Ship Positions

Patriot

Owner: AMNAV Maritime Corporation, Oakland, CA. More information available from US FCC via Universal Licensing System and Coast Guard Vessel Documentation Center.

Last reported at 2016-Jun-29 03:04 UTC. Time now 2016-Jun-29 07:32 UTC.
Position N 37°49' W 122°19'.

Length 31 m; draft 4.6 m.

Type: Tug. MMSI: 366998680.

Date/timePositionNaut miles runAvg speedWind from/ knotsBaromVisibWave heightAir tempDewpointWater temp
2016-Jun-29 03:04N 37°49' W 122°19'0 0.0
2016-Jun-29 02:32N 37°49' W 122°19'1 0.8
2016-Jun-29 01:21N 37°49' W 122°20'0 0.1
2016-Jun-29 00:04N 37°49' W 122°20'2 3.1
2016-Jun-28 23:33N 37°48' W 122°18'1 0.7
2016-Jun-28 22:30N 37°48' W 122°19'2 1.7
2016-Jun-28 21:33N 37°48' W 122°21'2 0.4
2016-Jun-28 16:34N 37°49' W 122°19'0 0.0
2016-Jun-28 15:33N 37°49' W 122°19'0 0.0
2016-Jun-28 14:33N 37°49' W 122°19'2 1.5
2016-Jun-28 13:31N 37°49' W 122°20'2 1.6
2016-Jun-28 12:33N 37°49' W 122°19'0 0.0
2016-Jun-28 11:34N 37°49' W 122°19'0 0.0
2016-Jun-28 10:33N 37°49' W 122°19'0 0.0
2016-Jun-28 09:33N 37°49' W 122°19'0 0.0
2016-Jun-28 08:32N 37°49' W 122°19'0 0.0
2016-Jun-28 07:33N 37°49' W 122°19'0 0.0
2016-Jun-28 06:33N 37°49' W 122°19'0 0.0
2016-Jun-28 04:31N 37°49' W 122°19'0 0.0
2016-Jun-28 03:33N 37°49' W 122°19'0 0.0
2016-Jun-28 02:32N 37°49' W 122°19'0 0.0
2016-Jun-28 01:33N 37°49' W 122°19'0 0.0
2016-Jun-27 23:33N 37°49' W 122°19'0 0.0
2016-Jun-27 22:32N 37°49' W 122°19'0 0.0
2016-Jun-27 18:27N 37°49' W 122°19'0 0.0
2016-Jun-27 17:24N 37°49' W 122°19'0 0.0
2016-Jun-27 16:32N 37°49' W 122°19'0 0.0
2016-Jun-27 15:34N 37°49' W 122°19'0 0.0
2016-Jun-27 14:33N 37°49' W 122°19'0 0.0
2016-Jun-27 13:33N 37°49' W 122°19'2 2.1
2016-Jun-27 12:33N 37°48' W 122°17'1 1.3
2016-Jun-27 11:34N 37°48' W 122°19'0 0.1
2016-Jun-27 10:33N 37°48' W 122°19'2 1.6
2016-Jun-27 09:33N 37°49' W 122°19'0 0.0
2016-Jun-27 08:30N 37°49' W 122°19'0 0.0
2016-Jun-27 04:19N 37°49' W 122°19'7 8.3
2016-Jun-27 03:31N 37°53' W 122°25'10 9.7
2016-Jun-27 02:30N 38°02' W 122°20'8 8.6
2016-Jun-27 01:32N 38°02' W 122°09'14 7.0
2016-Jun-26 23:32N 38°02' W 121°52'2 1.4
2016-Jun-26 22:19N 38°03' W 121°54'10 8.1
2016-Jun-26 21:05N 38°03' W 122°06'2 0.2
2016-Jun-26 13:25N 38°02' W 122°08'0 0.0
2016-Jun-26 11:32N 38°02' W 122°08'0 0.0
2016-Jun-26 10:33N 38°02' W 122°08'0 0.0
2016-Jun-26 04:17N 38°02' W 122°08'4 5.1
2016-Jun-26 03:33N 38°03' W 122°13'2 1.6
2016-Jun-26 02:33N 38°04' W 122°15'13 9.8
2016-Jun-26 01:17N 37°54' W 122°25'7 9.3
2016-Jun-26 00:33N 37°49' W 122°19'0 0.4
2016-Jun-25 23:34N 37°49' W 122°19'0 0.0
2016-Jun-25 22:33N 37°49' W 122°19'0 0.0
2016-Jun-25 21:33N 37°49' W 122°19'0 0.0
2016-Jun-25 20:33N 37°49' W 122°19'0 0.0
2016-Jun-25 19:32N 37°49' W 122°19'0 0.0
2016-Jun-25 18:33N 37°49' W 122°19'0 0.0
2016-Jun-25 17:33N 37°49' W 122°19'0 0.0
2016-Jun-25 16:33N 37°49' W 122°19'0 0.0
2016-Jun-25 15:33N 37°49' W 122°19'0 0.0
2016-Jun-25 14:33N 37°49' W 122°19'0 0.0
2016-Jun-25 13:34N 37°49' W 122°19'0 0.0
2016-Jun-25 12:34N 37°49' W 122°19'0 0.0
2016-Jun-25 11:33N 37°49' W 122°19'0 0.0
2016-Jun-25 10:33N 37°49' W 122°19'0 0.0
2016-Jun-25 09:33N 37°49' W 122°19'0 0.0
2016-Jun-25 08:33N 37°49' W 122°19'0 0.0
2016-Jun-25 07:33N 37°49' W 122°19'0 0.0
2016-Jun-25 06:33N 37°49' W 122°19'0 0.0
2016-Jun-25 05:33N 37°49' W 122°19'0 0.0
2016-Jun-25 04:31N 37°49' W 122°19'7 2.9
2016-Jun-25 02:11N 37°54' W 122°25'610.3
2016-Jun-25 01:33N 37°49' W 122°20'1 1.2
2016-Jun-25 00:33N 37°49' W 122°19'0 0.0
2016-Jun-24 23:32N 37°49' W 122°19'0 0.0
2016-Jun-24 22:21N 37°49' W 122°19'0 0.0
2016-Jun-24 21:32N 37°49' W 122°19'0 0.0
2016-Jun-24 20:33N 37°49' W 122°19'0 0.0
2016-Jun-24 19:33N 37°49' W 122°19'2 0.1
2016-Jun-23 19:29N 37°50' W 122°22'2 1.8
2016-Jun-23 18:11N 37°49' W 122°19'0 0.0
2016-Jun-23 17:33N 37°49' W 122°19'0 0.0
2016-Jun-23 16:32N 37°49' W 122°19'0 0.0
2016-Jun-23 15:32N 37°49' W 122°19'0 0.0
2016-Jun-23 14:18N 37°49' W 122°19'0 0.0
2016-Jun-23 13:31N 37°49' W 122°19'0 0.0
2016-Jun-23 12:33N 37°49' W 122°19'0 0.0
2016-Jun-23 11:21N 37°49' W 122°19'11 1.4
2016-Jun-23 03:12N 37°60' W 122°25'710.3
2016-Jun-23 02:31N 38°03' W 122°17'3 3.2
2016-Jun-23 01:33N 38°03' W 122°13'2 2.0
2016-Jun-23 00:33N 38°04' W 122°16'6 0.4
2016-Jun-22 10:17N 38°03' W 122°08'0 0.0
2016-Jun-22 09:33N 38°03' W 122°08'0 0.0
2016-Jun-22 08:33N 38°03' W 122°08'0 0.0
2016-Jun-22 07:33N 38°03' W 122°08'0 0.0
2016-Jun-22 06:33N 38°03' W 122°08'2 2.1
2016-Jun-22 05:33N 38°03' W 122°11'9 9.0
2016-Jun-22 04:33N 38°02' W 122°22'10 8.7
2016-Jun-22 03:24N 37°52' W 122°24'4 1.0
2016-Jun-21 23:18N 37°49' W 122°20'1 1.5
2016-Jun-21 22:33N 37°48' W 122°19'2 0.4
2016-Jun-21 18:33N 37°49' W 122°19'0 0.0
2016-Jun-21 14:18N 37°49' W 122°19'1 1.4
2016-Jun-21 13:23N 37°49' W 122°20'0 0.5
2016-Jun-21 12:33N 37°48' W 122°21'1 1.3
2016-Jun-21 11:33N 37°48' W 122°19'1 1.3
2016-Jun-21 10:31N 37°48' W 122°21'2 1.7
2016-Jun-21 09:31N 37°49' W 122°19'0 0.0
2016-Jun-21 08:33N 37°49' W 122°19'0 0.0
2016-Jun-21 07:33N 37°49' W 122°19'0 0.0
2016-Jun-21 06:13N 37°49' W 122°19'0 0.0
2016-Jun-21 02:21N 37°49' W 122°19'0 0.0
2016-Jun-20 22:10N 37°49' W 122°19'0 0.0
2016-Jun-20 18:26N 37°49' W 122°19'0 0.0
2016-Jun-20 17:24N 37°49' W 122°19'0 0.0
2016-Jun-20 14:33N 37°49' W 122°19'2 1.6
2016-Jun-20 13:33N 37°48' W 122°19'2 1.6
2016-Jun-20 12:21N 37°48' W 122°22'1 1.2
2016-Jun-20 11:33N 37°48' W 122°21'0 0.2
2016-Jun-20 10:33N 37°48' W 122°20'2 1.5
2016-Jun-20 09:33N 37°49' W 122°19'1 0.7
2016-Jun-20 08:32N 37°49' W 122°20'13 8.8
2016-Jun-20 07:05N 38°02' W 122°22'610.3
2016-Jun-20 06:33N 38°03' W 122°15'3 0.1
2016-Jun-19 03:30N 38°03' W 122°12'  
Track history (hours):
 
Tides and Currents Weather Stations Pressure Air Temp Water Temp Dewpoint Dewpoint Depression Visibility Wind Speed Wind Dir Waves Ship Positions

Patriot

Owner: AMNAV Maritime Corporation, Oakland, CA. More information available from US FCC via Universal Licensing System and Coast Guard Vessel Documentation Center.

Last reported at 2016-Jun-29 03:04 UTC. Time now 2016-Jun-29 07:32 UTC.
Position N 37°49' W 122°19'.

Length 31 m; draft 4.6 m.

Type: Tug. MMSI: 366998680.

Date/timePositionNaut miles runAvg speedWind from/ knotsBaromVisibWave heightAir tempDewpointWater temp
2016-Jun-29 03:04N 37°49' W 122°19'0 0.0
2016-Jun-29 02:32N 37°49' W 122°19'1 0.8
2016-Jun-29 01:21N 37°49' W 122°20'0 0.1
2016-Jun-29 00:04N 37°49' W 122°20'2 3.1
2016-Jun-28 23:33N 37°48' W 122°18'1 0.7
2016-Jun-28 22:30N 37°48' W 122°19'2 1.7
2016-Jun-28 21:33N 37°48' W 122°21'2 0.4
2016-Jun-28 16:34N 37°49' W 122°19'0 0.0
2016-Jun-28 15:33N 37°49' W 122°19'0 0.0
2016-Jun-28 14:33N 37°49' W 122°19'2 1.5
2016-Jun-28 13:31N 37°49' W 122°20'2 1.6
2016-Jun-28 12:33N 37°49' W 122°19'0 0.0
2016-Jun-28 11:34N 37°49' W 122°19'0 0.0
2016-Jun-28 10:33N 37°49' W 122°19'0 0.0
2016-Jun-28 09:33N 37°49' W 122°19'0 0.0
2016-Jun-28 08:32N 37°49' W 122°19'0 0.0
2016-Jun-28 07:33N 37°49' W 122°19'0 0.0
2016-Jun-28 06:33N 37°49' W 122°19'0 0.0
2016-Jun-28 04:31N 37°49' W 122°19'0 0.0
2016-Jun-28 03:33N 37°49' W 122°19'0 0.0
2016-Jun-28 02:32N 37°49' W 122°19'0 0.0
2016-Jun-28 01:33N 37°49' W 122°19'0 0.0
2016-Jun-27 23:33N 37°49' W 122°19'0 0.0
2016-Jun-27 22:32N 37°49' W 122°19'0 0.0
2016-Jun-27 18:27N 37°49' W 122°19'0 0.0
2016-Jun-27 17:24N 37°49' W 122°19'0 0.0
2016-Jun-27 16:32N 37°49' W 122°19'0 0.0
2016-Jun-27 15:34N 37°49' W 122°19'0 0.0
2016-Jun-27 14:33N 37°49' W 122°19'0 0.0
2016-Jun-27 13:33N 37°49' W 122°19'2 2.1
2016-Jun-27 12:33N 37°48' W 122°17'1 1.3
2016-Jun-27 11:34N 37°48' W 122°19'0 0.1
2016-Jun-27 10:33N 37°48' W 122°19'2 1.6
2016-Jun-27 09:33N 37°49' W 122°19'0 0.0
2016-Jun-27 08:30N 37°49' W 122°19'0 0.0
2016-Jun-27 04:19N 37°49' W 122°19'7 8.3
2016-Jun-27 03:31N 37°53' W 122°25'10 9.7
2016-Jun-27 02:30N 38°02' W 122°20'8 8.6
2016-Jun-27 01:32N 38°02' W 122°09'14 7.0
2016-Jun-26 23:32N 38°02' W 121°52'2 1.4
2016-Jun-26 22:19N 38°03' W 121°54'10 8.1
2016-Jun-26 21:05N 38°03' W 122°06'2 0.2
2016-Jun-26 13:25N 38°02' W 122°08'0 0.0
2016-Jun-26 11:32N 38°02' W 122°08'0 0.0
2016-Jun-26 10:33N 38°02' W 122°08'0 0.0
2016-Jun-26 04:17N 38°02' W 122°08'4 5.1
2016-Jun-26 03:33N 38°03' W 122°13'2 1.6
2016-Jun-26 02:33N 38°04' W 122°15'13 9.8
2016-Jun-26 01:17N 37°54' W 122°25'7 9.3
2016-Jun-26 00:33N 37°49' W 122°19'0 0.4
2016-Jun-25 23:34N 37°49' W 122°19'0 0.0
2016-Jun-25 22:33N 37°49' W 122°19'0 0.0
2016-Jun-25 21:33N 37°49' W 122°19'0 0.0
2016-Jun-25 20:33N 37°49' W 122°19'0 0.0
2016-Jun-25 19:32N 37°49' W 122°19'0 0.0
2016-Jun-25 18:33N 37°49' W 122°19'0 0.0
2016-Jun-25 17:33N 37°49' W 122°19'0 0.0
2016-Jun-25 16:33N 37°49' W 122°19'0 0.0
2016-Jun-25 15:33N 37°49' W 122°19'0 0.0
2016-Jun-25 14:33N 37°49' W 122°19'0 0.0
2016-Jun-25 13:34N 37°49' W 122°19'0 0.0
2016-Jun-25 12:34N 37°49' W 122°19'0 0.0
2016-Jun-25 11:33N 37°49' W 122°19'0 0.0
2016-Jun-25 10:33N 37°49' W 122°19'0 0.0
2016-Jun-25 09:33N 37°49' W 122°19'0 0.0
2016-Jun-25 08:33N 37°49' W 122°19'0 0.0
2016-Jun-25 07:33N 37°49' W 122°19'0 0.0
2016-Jun-25 06:33N 37°49' W 122°19'0 0.0
2016-Jun-25 05:33N 37°49' W 122°19'0 0.0
2016-Jun-25 04:31N 37°49' W 122°19'7 2.9
2016-Jun-25 02:11N 37°54' W 122°25'610.3
2016-Jun-25 01:33N 37°49' W 122°20'1 1.2
2016-Jun-25 00:33N 37°49' W 122°19'0 0.0
2016-Jun-24 23:32N 37°49' W 122°19'0 0.0
2016-Jun-24 22:21N 37°49' W 122°19'0 0.0
2016-Jun-24 21:32N 37°49' W 122°19'0 0.0
2016-Jun-24 20:33N 37°49' W 122°19'0 0.0
2016-Jun-24 19:33N 37°49' W 122°19'2 0.1
2016-Jun-23 19:29N 37°50' W 122°22'2 1.8
2016-Jun-23 18:11N 37°49' W 122°19'0 0.0
2016-Jun-23 17:33N 37°49' W 122°19'0 0.0
2016-Jun-23 16:32N 37°49' W 122°19'0 0.0
2016-Jun-23 15:32N 37°49' W 122°19'0 0.0
2016-Jun-23 14:18N 37°49' W 122°19'0 0.0
2016-Jun-23 13:31N 37°49' W 122°19'0 0.0
2016-Jun-23 12:33N 37°49' W 122°19'0 0.0
2016-Jun-23 11:21N 37°49' W 122°19'11 1.4
2016-Jun-23 03:12N 37°60' W 122°25'710.3
2016-Jun-23 02:31N 38°03' W 122°17'3 3.2
2016-Jun-23 01:33N 38°03' W 122°13'2 2.0
2016-Jun-23 00:33N 38°04' W 122°16'6 0.4
2016-Jun-22 10:17N 38°03' W 122°08'0 0.0
2016-Jun-22 09:33N 38°03' W 122°08'0 0.0
2016-Jun-22 08:33N 38°03' W 122°08'0 0.0
2016-Jun-22 07:33N 38°03' W 122°08'0 0.0
2016-Jun-22 06:33N 38°03' W 122°08'2 2.1
2016-Jun-22 05:33N 38°03' W 122°11'9 9.0
2016-Jun-22 04:33N 38°02' W 122°22'10 8.7
2016-Jun-22 03:24N 37°52' W 122°24'4 1.0
2016-Jun-21 23:18N 37°49' W 122°20'1 1.5
2016-Jun-21 22:33N 37°48' W 122°19'2 0.4
2016-Jun-21 18:33N 37°49' W 122°19'0 0.0
2016-Jun-21 14:18N 37°49' W 122°19'1 1.4
2016-Jun-21 13:23N 37°49' W 122°20'0 0.5
2016-Jun-21 12:33N 37°48' W 122°21'1 1.3
2016-Jun-21 11:33N 37°48' W 122°19'1 1.3
2016-Jun-21 10:31N 37°48' W 122°21'2 1.7
2016-Jun-21 09:31N 37°49' W 122°19'0 0.0
2016-Jun-21 08:33N 37°49' W 122°19'0 0.0
2016-Jun-21 07:33N 37°49' W 122°19'0 0.0
2016-Jun-21 06:13N 37°49' W 122°19'0 0.0
2016-Jun-21 02:21N 37°49' W 122°19'0 0.0
2016-Jun-20 22:10N 37°49' W 122°19'0 0.0
2016-Jun-20 18:26N 37°49' W 122°19'0 0.0
2016-Jun-20 17:24N 37°49' W 122°19'0 0.0
2016-Jun-20 14:33N 37°49' W 122°19'2 1.6
2016-Jun-20 13:33N 37°48' W 122°19'2 1.6
2016-Jun-20 12:21N 37°48' W 122°22'1 1.2
2016-Jun-20 11:33N 37°48' W 122°21'0 0.2
2016-Jun-20 10:33N 37°48' W 122°20'2 1.5
2016-Jun-20 09:33N 37°49' W 122°19'1 0.7
2016-Jun-20 08:32N 37°49' W 122°20'13 8.8
2016-Jun-20 07:05N 38°02' W 122°22'610.3
2016-Jun-20 06:33N 38°03' W 122°15'3 0.1
2016-Jun-19 03:30N 38°03' W 122°12'  

Dump ship's entire track history